Aviation Digital Data Service (ADDS)

Output produced by METARs form (1522 UTC 25 July 2014)
found at http://aviationweather.gov/adds/metars/
 
KPSM 251120Z 2512/2612 28005KT P6SM SCT250 
     FM251800 21008KT P6SM SCT060